sensor_id;sensor_type;location;lat;lon;timestamp;temperature;humidity
2391;DHT22;22957;50.824;4.360;2022-12-07T00:01:42;8.30;99.90
2391;DHT22;22957;50.824;4.360;2022-12-07T00:04:12;8.40;99.90
2391;DHT22;22957;50.824;4.360;2022-12-07T00:06:43;8.00;99.90
2391;DHT22;22957;50.824;4.360;2022-12-07T00:09:14;8.10;99.90
2391;DHT22;22957;50.824;4.360;2022-12-07T00:11:40;8.00;99.90
2391;DHT22;22957;50.824;4.360;2022-12-07T00:14:11;8.00;99.90
2391;DHT22;22957;50.824;4.360;2022-12-07T00:16:37;7.60;99.90
2391;DHT22;22957;50.824;4.360;2022-12-07T00:19:03;8.20;99.90
2391;DHT22;22957;50.824;4.360;2022-12-07T00:21:32;8.20;99.90
2391;DHT22;22957;50.824;4.360;2022-12-07T00:23:58;8.00;99.90
2391;DHT22;22957;50.824;4.360;2022-12-07T00:26:27;7.70;99.90
2391;DHT22;22957;50.824;4.360;2022-12-07T00:28:56;7.70;99.90
2391;DHT22;22957;50.824;4.360;2022-12-07T00:31:25;7.60;99.90
2391;DHT22;22957;50.824;4.360;2022-12-07T00:33:51;7.60;99.90
2391;DHT22;22957;50.824;4.360;2022-12-07T00:36:19;7.20;99.90
2391;DHT22;22957;50.824;4.360;2022-12-07T00:38:45;7.50;99.90
2391;DHT22;22957;50.824;4.360;2022-12-07T00:41:16;7.40;99.90
2391;DHT22;22957;50.824;4.360;2022-12-07T00:43:43;7.50;99.90
2391;DHT22;22957;50.824;4.360;2022-12-07T00:46:10;7.30;99.90
2391;DHT22;22957;50.824;4.360;2022-12-07T00:48:36;7.20;99.90
2391;DHT22;22957;50.824;4.360;2022-12-07T00:51:02;7.30;99.90
2391;DHT22;22957;50.824;4.360;2022-12-07T00:53:28;7.20;99.90
2391;DHT22;22957;50.824;4.360;2022-12-07T00:55:54;6.90;99.90
2391;DHT22;22957;50.824;4.360;2022-12-07T00:58:22;7.40;99.90
2391;DHT22;22957;50.824;4.360;2022-12-07T01:00:47;7.40;99.90
2391;DHT22;22957;50.824;4.360;2022-12-07T01:03:15;7.10;99.90
2391;DHT22;22957;50.824;4.360;2022-12-07T01:05:52;7.00;99.90
2391;DHT22;22957;50.824;4.360;2022-12-07T01:08:18;7.20;99.90
2391;DHT22;22957;50.824;4.360;2022-12-07T01:10:44;7.40;99.90
2391;DHT22;22957;50.824;4.360;2022-12-07T01:13:10;7.60;99.90
2391;DHT22;22957;50.824;4.360;2022-12-07T01:15:42;7.00;99.90
2391;DHT22;22957;50.824;4.360;2022-12-07T01:18:08;7.10;99.90
2391;DHT22;22957;50.824;4.360;2022-12-07T01:20:34;7.00;99.90
2391;DHT22;22957;50.824;4.360;2022-12-07T01:23:00;7.30;99.90
2391;DHT22;22957;50.824;4.360;2022-12-07T01:25:26;6.90;99.90
2391;DHT22;22957;50.824;4.360;2022-12-07T01:27:52;7.00;99.90
2391;DHT22;22957;50.824;4.360;2022-12-07T01:30:17;6.90;99.90
2391;DHT22;22957;50.824;4.360;2022-12-07T01:32:43;7.10;99.90
2391;DHT22;22957;50.824;4.360;2022-12-07T01:35:09;7.00;99.90
2391;DHT22;22957;50.824;4.360;2022-12-07T01:37:38;6.90;99.90
2391;DHT22;22957;50.824;4.360;2022-12-07T01:40:06;6.80;99.90
2391;DHT22;22957;50.824;4.360;2022-12-07T01:42:32;6.50;99.90
2391;DHT22;22957;50.824;4.360;2022-12-07T01:48:01;6.90;99.90
2391;DHT22;22957;50.824;4.360;2022-12-07T01:50:28;7.00;99.90
2391;DHT22;22957;50.824;4.360;2022-12-07T01:53:00;7.10;99.90
2391;DHT22;22957;50.824;4.360;2022-12-07T01:55:27;7.30;99.90
2391;DHT22;22957;50.824;4.360;2022-12-07T01:57:54;7.50;99.90
2391;DHT22;22957;50.824;4.360;2022-12-07T02:00:21;7.20;99.90
2391;DHT22;22957;50.824;4.360;2022-12-07T02:05:32;7.70;99.90
2391;DHT22;22957;50.824;4.360;2022-12-07T02:07:59;7.60;99.90
2391;DHT22;22957;50.824;4.360;2022-12-07T02:10:28;7.90;99.90
2391;DHT22;22957;50.824;4.360;2022-12-07T02:13:17;7.80;99.90
2391;DHT22;22957;50.824;4.360;2022-12-07T02:18:44;7.40;99.90
2391;DHT22;22957;50.824;4.360;2022-12-07T02:29:25;7.30;99.90
2391;DHT22;22957;50.824;4.360;2022-12-07T02:32:11;7.70;99.90
2391;DHT22;22957;50.824;4.360;2022-12-07T02:37:53;8.30;99.90
2391;DHT22;22957;50.824;4.360;2022-12-07T02:42:55;8.40;99.90
2391;DHT22;22957;50.824;4.360;2022-12-07T02:45:25;8.30;99.90
2391;DHT22;22957;50.824;4.360;2022-12-07T02:47:56;8.20;99.90
2391;DHT22;22957;50.824;4.360;2022-12-07T02:50:24;8.30;99.90
2391;DHT22;22957;50.824;4.360;2022-12-07T02:52:49;7.80;99.90
2391;DHT22;22957;50.824;4.360;2022-12-07T02:55:18;8.20;99.90
2391;DHT22;22957;50.824;4.360;2022-12-07T03:00:18;7.40;99.90
2391;DHT22;22957;50.824;4.360;2022-12-07T03:02:59;7.40;99.90
2391;DHT22;22957;50.824;4.360;2022-12-07T03:11:04;7.30;99.90
2391;DHT22;22957;50.824;4.360;2022-12-07T03:16:35;7.30;99.90
2391;DHT22;22957;50.824;4.360;2022-12-07T03:19:10;7.50;99.90
2391;DHT22;22957;50.824;4.360;2022-12-07T03:21:47;7.60;99.90
2391;DHT22;22957;50.824;4.360;2022-12-07T03:24:18;7.90;99.90
2391;DHT22;22957;50.824;4.360;2022-12-07T03:26:49;7.70;99.90
2391;DHT22;22957;50.824;4.360;2022-12-07T03:29:23;7.20;99.90
2391;DHT22;22957;50.824;4.360;2022-12-07T03:32:06;7.30;99.90
2391;DHT22;22957;50.824;4.360;2022-12-07T03:34:47;7.10;99.90
2391;DHT22;22957;50.824;4.360;2022-12-07T03:37:19;7.70;99.90
2391;DHT22;22957;50.824;4.360;2022-12-07T03:40:07;7.30;99.90
2391;DHT22;22957;50.824;4.360;2022-12-07T03:42:36;7.20;99.90
2391;DHT22;22957;50.824;4.360;2022-12-07T03:45:04;7.50;99.90
2391;DHT22;22957;50.824;4.360;2022-12-07T03:52:47;7.80;99.90
2391;DHT22;22957;50.824;4.360;2022-12-07T03:55:28;7.90;99.90
2391;DHT22;22957;50.824;4.360;2022-12-07T03:58:01;7.70;99.90
2391;DHT22;22957;50.824;4.360;2022-12-07T04:00:28;7.90;99.90
2391;DHT22;22957;50.824;4.360;2022-12-07T04:02:55;7.60;99.90
2391;DHT22;22957;50.824;4.360;2022-12-07T04:05:21;7.00;99.90
2391;DHT22;22957;50.824;4.360;2022-12-07T04:07:47;7.20;99.90
2391;DHT22;22957;50.824;4.360;2022-12-07T04:10:13;7.40;99.90
2391;DHT22;22957;50.824;4.360;2022-12-07T04:12:39;7.20;99.90
2391;DHT22;22957;50.824;4.360;2022-12-07T04:15:05;7.20;99.90
2391;DHT22;22957;50.824;4.360;2022-12-07T04:17:31;7.10;99.90
2391;DHT22;22957;50.824;4.360;2022-12-07T04:19:56;7.00;99.90
2391;DHT22;22957;50.824;4.360;2022-12-07T04:22:22;6.80;99.90
2391;DHT22;22957;50.824;4.360;2022-12-07T04:24:48;6.80;99.90
2391;DHT22;22957;50.824;4.360;2022-12-07T04:27:13;7.30;99.90
2391;DHT22;22957;50.824;4.360;2022-12-07T04:29:39;7.40;99.90
2391;DHT22;22957;50.824;4.360;2022-12-07T04:32:05;7.10;99.90
2391;DHT22;22957;50.824;4.360;2022-12-07T04:34:31;7.10;99.90
2391;DHT22;22957;50.824;4.360;2022-12-07T04:36:57;7.00;99.90
2391;DHT22;22957;50.824;4.360;2022-12-07T04:39:28;7.20;99.90
2391;DHT22;22957;50.824;4.360;2022-12-07T04:41:54;7.10;99.90
2391;DHT22;22957;50.824;4.360;2022-12-07T04:44:20;7.00;99.90
2391;DHT22;22957;50.824;4.360;2022-12-07T04:46:47;7.00;99.90
2391;DHT22;22957;50.824;4.360;2022-12-07T04:49:13;7.10;99.90
2391;DHT22;22957;50.824;4.360;2022-12-07T04:51:40;7.40;99.90
2391;DHT22;22957;50.824;4.360;2022-12-07T04:54:06;7.60;99.90
2391;DHT22;22957;50.824;4.360;2022-12-07T04:56:32;7.20;99.90
2391;DHT22;22957;50.824;4.360;2022-12-07T04:58:58;7.40;99.90
2391;DHT22;22957;50.824;4.360;2022-12-07T05:01:24;7.40;99.90
2391;DHT22;22957;50.824;4.360;2022-12-07T05:03:50;7.20;99.90
2391;DHT22;22957;50.824;4.360;2022-12-07T05:06:16;7.20;99.90
2391;DHT22;22957;50.824;4.360;2022-12-07T05:08:43;7.40;99.90
2391;DHT22;22957;50.824;4.360;2022-12-07T05:11:10;7.50;99.90
2391;DHT22;22957;50.824;4.360;2022-12-07T05:13:56;7.60;99.90
2391;DHT22;22957;50.824;4.360;2022-12-07T05:16:22;7.30;99.90
2391;DHT22;22957;50.824;4.360;2022-12-07T05:18:48;7.30;99.90
2391;DHT22;22957;50.824;4.360;2022-12-07T05:21:14;7.80;99.90
2391;DHT22;22957;50.824;4.360;2022-12-07T05:23:39;7.70;99.90
2391;DHT22;22957;50.824;4.360;2022-12-07T05:26:05;7.30;99.90
2391;DHT22;22957;50.824;4.360;2022-12-07T05:28:31;7.30;99.90
2391;DHT22;22957;50.824;4.360;2022-12-07T05:30:57;7.30;99.90
2391;DHT22;22957;50.824;4.360;2022-12-07T05:33:22;7.10;99.90
2391;DHT22;22957;50.824;4.360;2022-12-07T05:35:48;6.90;99.90
2391;DHT22;22957;50.824;4.360;2022-12-07T05:38:14;7.20;99.90
2391;DHT22;22957;50.824;4.360;2022-12-07T05:40:40;7.50;99.90
2391;DHT22;22957;50.824;4.360;2022-12-07T05:43:05;7.00;99.90
2391;DHT22;22957;50.824;4.360;2022-12-07T05:45:31;7.10;99.90
2391;DHT22;22957;50.824;4.360;2022-12-07T05:47:57;7.40;99.90
2391;DHT22;22957;50.824;4.360;2022-12-07T05:50:23;7.10;99.90
2391;DHT22;22957;50.824;4.360;2022-12-07T05:52:48;7.30;99.90
2391;DHT22;22957;50.824;4.360;2022-12-07T05:55:14;7.20;99.90
2391;DHT22;22957;50.824;4.360;2022-12-07T05:57:40;7.40;99.90
2391;DHT22;22957;50.824;4.360;2022-12-07T06:00:26;7.80;99.90
2391;DHT22;22957;50.824;4.360;2022-12-07T06:02:51;7.80;99.90
2391;DHT22;22957;50.824;4.360;2022-12-07T06:05:17;7.70;99.90
2391;DHT22;22957;50.824;4.360;2022-12-07T06:07:43;7.20;99.90
2391;DHT22;22957;50.824;4.360;2022-12-07T06:10:10;7.50;99.90
2391;DHT22;22957;50.824;4.360;2022-12-07T06:12:36;7.40;99.90
2391;DHT22;22957;50.824;4.360;2022-12-07T06:15:04;7.50;99.90
2391;DHT22;22957;50.824;4.360;2022-12-07T06:17:29;7.50;99.90
2391;DHT22;22957;50.824;4.360;2022-12-07T06:19:55;7.80;99.90
2391;DHT22;22957;50.824;4.360;2022-12-07T06:22:21;7.90;99.90
2391;DHT22;22957;50.824;4.360;2022-12-07T06:24:47;7.80;99.90
2391;DHT22;22957;50.824;4.360;2022-12-07T06:27:13;7.60;99.90
2391;DHT22;22957;50.824;4.360;2022-12-07T06:29:39;8.10;99.90
2391;DHT22;22957;50.824;4.360;2022-12-07T06:32:05;7.80;99.90
2391;DHT22;22957;50.824;4.360;2022-12-07T06:34:31;7.70;99.90
2391;DHT22;22957;50.824;4.360;2022-12-07T06:36:56;7.50;99.90
2391;DHT22;22957;50.824;4.360;2022-12-07T06:39:24;7.50;99.90
2391;DHT22;22957;50.824;4.360;2022-12-07T06:41:51;7.50;99.90
2391;DHT22;22957;50.824;4.360;2022-12-07T06:44:18;7.70;99.90
2391;DHT22;22957;50.824;4.360;2022-12-07T06:46:44;7.80;99.90
2391;DHT22;22957;50.824;4.360;2022-12-07T06:49:10;7.90;99.90
2391;DHT22;22957;50.824;4.360;2022-12-07T06:51:36;7.80;99.90
2391;DHT22;22957;50.824;4.360;2022-12-07T06:54:09;7.70;99.90
2391;DHT22;22957;50.824;4.360;2022-12-07T06:56:35;8.10;99.90
2391;DHT22;22957;50.824;4.360;2022-12-07T06:59:01;7.60;99.90
2391;DHT22;22957;50.824;4.360;2022-12-07T07:01:28;7.70;99.90
2391;DHT22;22957;50.824;4.360;2022-12-07T07:03:53;7.30;99.90
2391;DHT22;22957;50.824;4.360;2022-12-07T07:06:19;7.80;99.90
2391;DHT22;22957;50.824;4.360;2022-12-07T07:08:45;7.60;99.90
2391;DHT22;22957;50.824;4.360;2022-12-07T07:11:12;8.00;99.90
2391;DHT22;22957;50.824;4.360;2022-12-07T07:13:38;8.00;99.90
2391;DHT22;22957;50.824;4.360;2022-12-07T07:16:04;7.80;99.90
2391;DHT22;22957;50.824;4.360;2022-12-07T07:18:30;8.50;99.90
2391;DHT22;22957;50.824;4.360;2022-12-07T07:20:56;8.20;99.90
2391;DHT22;22957;50.824;4.360;2022-12-07T07:23:22;8.30;99.90
2391;DHT22;22957;50.824;4.360;2022-12-07T07:25:48;8.50;99.90
2391;DHT22;22957;50.824;4.360;2022-12-07T07:28:14;8.00;99.90
2391;DHT22;22957;50.824;4.360;2022-12-07T07:30:40;8.00;99.90
2391;DHT22;22957;50.824;4.360;2022-12-07T07:33:06;7.80;99.90
2391;DHT22;22957;50.824;4.360;2022-12-07T07:35:33;7.90;99.90
2391;DHT22;22957;50.824;4.360;2022-12-07T07:38:00;7.80;99.90
2391;DHT22;22957;50.824;4.360;2022-12-07T07:40:27;7.40;99.90
2391;DHT22;22957;50.824;4.360;2022-12-07T07:42:54;7.40;99.90
2391;DHT22;22957;50.824;4.360;2022-12-07T07:45:22;7.50;99.90
2391;DHT22;22957;50.824;4.360;2022-12-07T07:47:49;7.90;99.90
2391;DHT22;22957;50.824;4.360;2022-12-07T07:50:15;7.90;99.90
2391;DHT22;22957;50.824;4.360;2022-12-07T07:52:41;8.20;99.90
2391;DHT22;22957;50.824;4.360;2022-12-07T07:55:08;8.40;99.90
2391;DHT22;22957;50.824;4.360;2022-12-07T07:57:35;8.80;99.90
2391;DHT22;22957;50.824;4.360;2022-12-07T08:00:01;8.80;99.90
2391;DHT22;22957;50.824;4.360;2022-12-07T08:02:28;8.70;99.90
2391;DHT22;22957;50.824;4.360;2022-12-07T08:04:55;8.70;99.90
2391;DHT22;22957;50.824;4.360;2022-12-07T08:07:20;8.50;99.90
2391;DHT22;22957;50.824;4.360;2022-12-07T08:09:46;8.50;99.90
2391;DHT22;22957;50.824;4.360;2022-12-07T08:12:12;8.50;99.90
2391;DHT22;22957;50.824;4.360;2022-12-07T08:14:38;8.10;99.90
2391;DHT22;22957;50.824;4.360;2022-12-07T08:17:04;8.30;99.90
2391;DHT22;22957;50.824;4.360;2022-12-07T08:19:29;8.40;99.90
2391;DHT22;22957;50.824;4.360;2022-12-07T08:21:59;8.10;99.90
2391;DHT22;22957;50.824;4.360;2022-12-07T08:24:25;8.40;99.90
2391;DHT22;22957;50.824;4.360;2022-12-07T08:26:52;8.50;99.90
2391;DHT22;22957;50.824;4.360;2022-12-07T08:29:18;9.10;99.90
2391;DHT22;22957;50.824;4.360;2022-12-07T08:31:44;9.30;99.90
2391;DHT22;22957;50.824;4.360;2022-12-07T08:34:13;9.40;99.90
2391;DHT22;22957;50.824;4.360;2022-12-07T08:36:40;9.60;99.90
2391;DHT22;22957;50.824;4.360;2022-12-07T08:39:05;9.20;99.90
2391;DHT22;22957;50.824;4.360;2022-12-07T08:41:31;9.20;99.90
2391;DHT22;22957;50.824;4.360;2022-12-07T08:43:57;9.10;99.90
2391;DHT22;22957;50.824;4.360;2022-12-07T08:49:16;8.70;99.90
2391;DHT22;22957;50.824;4.360;2022-12-07T08:51:43;8.80;99.90
2391;DHT22;22957;50.824;4.360;2022-12-07T08:54:12;9.70;99.90
2391;DHT22;22957;50.824;4.360;2022-12-07T08:56:38;9.50;99.90
2391;DHT22;22957;50.824;4.360;2022-12-07T08:59:05;9.70;99.90
2391;DHT22;22957;50.824;4.360;2022-12-07T09:01:31;9.50;99.90
2391;DHT22;22957;50.824;4.360;2022-12-07T09:03:58;9.20;99.90
2391;DHT22;22957;50.824;4.360;2022-12-07T09:06:24;8.80;99.90
2391;DHT22;22957;50.824;4.360;2022-12-07T09:08:53;8.50;99.90
2391;DHT22;22957;50.824;4.360;2022-12-07T09:11:20;9.20;99.90
2391;DHT22;22957;50.824;4.360;2022-12-07T09:13:46;9.30;99.90
2391;DHT22;22957;50.824;4.360;2022-12-07T09:16:12;9.50;99.90
2391;DHT22;22957;50.824;4.360;2022-12-07T09:18:38;9.40;99.90
2391;DHT22;22957;50.824;4.360;2022-12-07T09:21:04;9.50;99.90
2391;DHT22;22957;50.824;4.360;2022-12-07T09:23:30;9.80;99.90
2391;DHT22;22957;50.824;4.360;2022-12-07T09:26:05;9.30;99.90
2391;DHT22;22957;50.824;4.360;2022-12-07T09:28:32;9.40;99.90
2391;DHT22;22957;50.824;4.360;2022-12-07T09:30:57;9.70;99.90
2391;DHT22;22957;50.824;4.360;2022-12-07T09:33:23;10.30;99.90
2391;DHT22;22957;50.824;4.360;2022-12-07T09:35:50;9.60;99.90
2391;DHT22;22957;50.824;4.360;2022-12-07T09:38:18;10.40;99.90
2391;DHT22;22957;50.824;4.360;2022-12-07T09:40:44;10.60;99.90
2391;DHT22;22957;50.824;4.360;2022-12-07T09:43:21;10.60;99.90
2391;DHT22;22957;50.824;4.360;2022-12-07T09:45:52;10.40;99.90
2391;DHT22;22957;50.824;4.360;2022-12-07T09:48:22;10.20;99.90
2391;DHT22;22957;50.824;4.360;2022-12-07T09:50:57;10.40;99.90
2391;DHT22;22957;50.824;4.360;2022-12-07T09:53:37;10.30;99.90
2391;DHT22;22957;50.824;4.360;2022-12-07T09:56:04;10.20;99.90
2391;DHT22;22957;50.824;4.360;2022-12-07T09:58:32;10.00;99.90
2391;DHT22;22957;50.824;4.360;2022-12-07T10:03:35;9.40;99.90
2391;DHT22;22957;50.824;4.360;2022-12-07T10:06:03;9.40;99.90
2391;DHT22;22957;50.824;4.360;2022-12-07T10:08:29;9.90;99.90
2391;DHT22;22957;50.824;4.360;2022-12-07T10:10:56;8.90;99.90
2391;DHT22;22957;50.824;4.360;2022-12-07T10:13:34;9.20;99.90
2391;DHT22;22957;50.824;4.360;2022-12-07T10:16:00;9.70;99.90
2391;DHT22;22957;50.824;4.360;2022-12-07T10:23:41;9.50;99.90
2391;DHT22;22957;50.824;4.360;2022-12-07T10:28:53;10.10;99.90
2391;DHT22;22957;50.824;4.360;2022-12-07T10:31:22;9.50;99.90
2391;DHT22;22957;50.824;4.360;2022-12-07T10:33:51;9.70;99.90
2391;DHT22;22957;50.824;4.360;2022-12-07T10:41:18;10.50;99.90
2391;DHT22;22957;50.824;4.360;2022-12-07T10:43:55;10.80;99.90
2391;DHT22;22957;50.824;4.360;2022-12-07T10:51:43;10.70;99.90
2391;DHT22;22957;50.824;4.360;2022-12-07T11:02:37;10.20;99.90
2391;DHT22;22957;50.824;4.360;2022-12-07T11:07:42;10.10;99.90
2391;DHT22;22957;50.824;4.360;2022-12-07T11:10:18;10.40;99.90
2391;DHT22;22957;50.824;4.360;2022-12-07T11:15:24;11.00;99.90
2391;DHT22;22957;50.824;4.360;2022-12-07T11:20:48;11.20;99.90
2391;DHT22;22957;50.824;4.360;2022-12-07T11:29:32;11.50;99.90
2391;DHT22;22957;50.824;4.360;2022-12-07T11:37:39;11.30;99.90
2391;DHT22;22957;50.824;4.360;2022-12-07T11:43:01;10.90;99.90
2391;DHT22;22957;50.824;4.360;2022-12-07T11:45:33;10.40;99.90
2391;DHT22;22957;50.824;4.360;2022-12-07T11:48:10;10.90;99.90
2391;DHT22;22957;50.824;4.360;2022-12-07T11:50:45;10.60;99.90
2391;DHT22;22957;50.824;4.360;2022-12-07T12:06:37;11.50;99.90
2391;DHT22;22957;50.824;4.360;2022-12-07T12:28:04;12.40;99.90
2391;DHT22;22957;50.824;4.360;2022-12-07T12:30:38;11.10;99.90
2391;DHT22;22957;50.824;4.360;2022-12-07T12:33:26;11.40;99.90
2391;DHT22;22957;50.824;4.360;2022-12-07T12:51:43;11.30;99.90
2391;DHT22;22957;50.824;4.360;2022-12-07T12:59:41;11.00;99.90
2391;DHT22;22957;50.824;4.360;2022-12-07T13:02:20;10.60;99.90
2391;DHT22;22957;50.824;4.360;2022-12-07T13:04:59;10.70;99.90
2391;DHT22;22957;50.824;4.360;2022-12-07T13:20:58;10.00;99.90
2391;DHT22;22957;50.824;4.360;2022-12-07T13:31:41;10.90;99.90
2391;DHT22;22957;50.824;4.360;2022-12-07T13:34:36;10.40;99.90
2391;DHT22;22957;50.824;4.360;2022-12-07T13:37:24;10.90;99.90
2391;DHT22;22957;50.824;4.360;2022-12-07T13:39:54;10.90;99.90
2391;DHT22;22957;50.824;4.360;2022-12-07T13:44:52;11.00;99.90
2391;DHT22;22957;50.824;4.360;2022-12-07T13:47:22;10.50;99.90
2391;DHT22;22957;50.824;4.360;2022-12-07T13:49:54;11.00;99.90
2391;DHT22;22957;50.824;4.360;2022-12-07T13:54:55;10.90;99.90
2391;DHT22;22957;50.824;4.360;2022-12-07T13:57:22;11.10;99.90
2391;DHT22;22957;50.824;4.360;2022-12-07T13:59:49;11.40;99.90
2391;DHT22;22957;50.824;4.360;2022-12-07T14:02:21;11.40;99.90
2391;DHT22;22957;50.824;4.360;2022-12-07T14:04:50;10.90;99.90
2391;DHT22;22957;50.824;4.360;2022-12-07T14:07:21;10.60;99.90
2391;DHT22;22957;50.824;4.360;2022-12-07T14:10:00;10.80;99.90
2391;DHT22;22957;50.824;4.360;2022-12-07T14:12:46;11.30;99.90
2391;DHT22;22957;50.824;4.360;2022-12-07T14:31:42;11.10;99.90
2391;DHT22;22957;50.824;4.360;2022-12-07T14:34:12;10.80;99.90
2391;DHT22;22957;50.824;4.360;2022-12-07T14:36:40;11.50;99.90
2391;DHT22;22957;50.824;4.360;2022-12-07T14:39:38;11.40;99.90
2391;DHT22;22957;50.824;4.360;2022-12-07T14:42:28;10.50;99.90
2391;DHT22;22957;50.824;4.360;2022-12-07T14:45:17;10.60;99.90
2391;DHT22;22957;50.824;4.360;2022-12-07T14:47:55;9.90;99.90
2391;DHT22;22957;50.824;4.360;2022-12-07T14:54:31;9.50;99.90
2391;DHT22;22957;50.824;4.360;2022-12-07T14:57:45;9.90;99.90
2391;DHT22;22957;50.824;4.360;2022-12-07T15:00:27;10.00;99.90
2391;DHT22;22957;50.824;4.360;2022-12-07T15:02:56;10.30;99.90
2391;DHT22;22957;50.824;4.360;2022-12-07T15:05:23;10.20;99.90
2391;DHT22;22957;50.824;4.360;2022-12-07T15:07:49;10.20;99.90
2391;DHT22;22957;50.824;4.360;2022-12-07T15:10:36;10.40;99.90
2391;DHT22;22957;50.824;4.360;2022-12-07T15:13:07;10.50;99.90
2391;DHT22;22957;50.824;4.360;2022-12-07T15:15:54;10.50;99.90
2391;DHT22;22957;50.824;4.360;2022-12-07T15:18:22;10.30;99.90
2391;DHT22;22957;50.824;4.360;2022-12-07T15:20:52;10.20;99.90
2391;DHT22;22957;50.824;4.360;2022-12-07T15:23:20;10.60;99.90
2391;DHT22;22957;50.824;4.360;2022-12-07T15:25:59;9.90;99.90
2391;DHT22;22957;50.824;4.360;2022-12-07T15:28:26;10.30;99.90
2391;DHT22;22957;50.824;4.360;2022-12-07T15:31:13;10.40;99.90
2391;DHT22;22957;50.824;4.360;2022-12-07T15:33:40;10.40;99.90
2391;DHT22;22957;50.824;4.360;2022-12-07T15:36:07;10.30;99.90
2391;DHT22;22957;50.824;4.360;2022-12-07T15:38:35;10.20;99.90
2391;DHT22;22957;50.824;4.360;2022-12-07T15:41:01;10.30;99.90
2391;DHT22;22957;50.824;4.360;2022-12-07T15:43:27;10.20;99.90
2391;DHT22;22957;50.824;4.360;2022-12-07T15:46:12;10.60;99.90
2391;DHT22;22957;50.824;4.360;2022-12-07T15:48:39;10.30;99.90
2391;DHT22;22957;50.824;4.360;2022-12-07T15:51:08;10.20;99.90
2391;DHT22;22957;50.824;4.360;2022-12-07T15:53:35;10.00;99.90
2391;DHT22;22957;50.824;4.360;2022-12-07T15:56:01;9.80;99.90
2391;DHT22;22957;50.824;4.360;2022-12-07T15:58:31;9.70;99.90
2391;DHT22;22957;50.824;4.360;2022-12-07T16:00:57;9.40;99.90
2391;DHT22;22957;50.824;4.360;2022-12-07T16:03:23;9.30;99.90
2391;DHT22;22957;50.824;4.360;2022-12-07T16:05:52;8.90;99.90
2391;DHT22;22957;50.824;4.360;2022-12-07T16:08:19;8.70;99.90
2391;DHT22;22957;50.824;4.360;2022-12-07T16:10:44;8.70;99.90
2391;DHT22;22957;50.824;4.360;2022-12-07T16:13:11;9.00;99.90
2391;DHT22;22957;50.824;4.360;2022-12-07T16:15:41;8.60;99.90
2391;DHT22;22957;50.824;4.360;2022-12-07T16:18:07;8.60;99.90
2391;DHT22;22957;50.824;4.360;2022-12-07T16:20:33;8.60;99.90
2391;DHT22;22957;50.824;4.360;2022-12-07T16:22:59;8.40;99.90
2391;DHT22;22957;50.824;4.360;2022-12-07T16:25:25;8.60;99.90
2391;DHT22;22957;50.824;4.360;2022-12-07T16:27:51;9.20;99.90
2391;DHT22;22957;50.824;4.360;2022-12-07T16:30:17;9.10;99.90
2391;DHT22;22957;50.824;4.360;2022-12-07T16:32:43;8.80;99.90
2391;DHT22;22957;50.824;4.360;2022-12-07T16:35:10;9.30;99.90
2391;DHT22;22957;50.824;4.360;2022-12-07T16:37:38;9.10;99.90
2391;DHT22;22957;50.824;4.360;2022-12-07T16:40:05;8.70;99.90
2391;DHT22;22957;50.824;4.360;2022-12-07T16:42:34;8.60;99.90
2391;DHT22;22957;50.824;4.360;2022-12-07T16:45:01;8.70;99.90
2391;DHT22;22957;50.824;4.360;2022-12-07T16:47:27;8.50;99.90
2391;DHT22;22957;50.824;4.360;2022-12-07T16:49:52;8.90;99.90
2391;DHT22;22957;50.824;4.360;2022-12-07T16:52:19;8.60;99.90
2391;DHT22;22957;50.824;4.360;2022-12-07T16:54:45;9.00;99.90
2391;DHT22;22957;50.824;4.360;2022-12-07T16:57:11;8.70;99.90
2391;DHT22;22957;50.824;4.360;2022-12-07T16:59:37;9.10;99.90
2391;DHT22;22957;50.824;4.360;2022-12-07T17:02:03;8.60;99.90
2391;DHT22;22957;50.824;4.360;2022-12-07T17:04:29;9.10;99.90
2391;DHT22;22957;50.824;4.360;2022-12-07T17:06:56;9.40;99.90
2391;DHT22;22957;50.824;4.360;2022-12-07T17:09:24;9.40;99.90
2391;DHT22;22957;50.824;4.360;2022-12-07T17:11:53;9.30;99.90
2391;DHT22;22957;50.824;4.360;2022-12-07T17:14:19;9.20;99.90
2391;DHT22;22957;50.824;4.360;2022-12-07T17:17:03;9.00;99.90
2391;DHT22;22957;50.824;4.360;2022-12-07T17:19:29;9.00;99.90
2391;DHT22;22957;50.824;4.360;2022-12-07T17:21:55;8.90;99.90
2391;DHT22;22957;50.824;4.360;2022-12-07T17:24:21;9.00;99.90
2391;DHT22;22957;50.824;4.360;2022-12-07T17:26:48;9.20;99.90
2391;DHT22;22957;50.824;4.360;2022-12-07T17:29:16;9.40;99.90
2391;DHT22;22957;50.824;4.360;2022-12-07T17:31:42;8.80;99.90
2391;DHT22;22957;50.824;4.360;2022-12-07T17:34:13;8.80;99.90
2391;DHT22;22957;50.824;4.360;2022-12-07T17:36:39;8.90;99.90
2391;DHT22;22957;50.824;4.360;2022-12-07T17:39:10;8.90;99.90
2391;DHT22;22957;50.824;4.360;2022-12-07T17:41:37;9.40;99.90
2391;DHT22;22957;50.824;4.360;2022-12-07T17:44:22;9.50;99.90
2391;DHT22;22957;50.824;4.360;2022-12-07T17:46:50;9.20;99.90
2391;DHT22;22957;50.824;4.360;2022-12-07T17:49:22;9.30;99.90
2391;DHT22;22957;50.824;4.360;2022-12-07T17:51:49;9.20;99.90
2391;DHT22;22957;50.824;4.360;2022-12-07T17:54:33;9.30;99.90
2391;DHT22;22957;50.824;4.360;2022-12-07T17:56:59;8.50;99.90
2391;DHT22;22957;50.824;4.360;2022-12-07T17:59:25;8.40;99.90
2391;DHT22;22957;50.824;4.360;2022-12-07T18:01:51;8.30;99.90
2391;DHT22;22957;50.824;4.360;2022-12-07T18:04:17;8.20;99.90
2391;DHT22;22957;50.824;4.360;2022-12-07T18:06:43;8.10;99.90
2391;DHT22;22957;50.824;4.360;2022-12-07T18:09:09;7.70;99.90
2391;DHT22;22957;50.824;4.360;2022-12-07T18:11:35;8.00;99.90
2391;DHT22;22957;50.824;4.360;2022-12-07T18:14:02;8.30;99.90
2391;DHT22;22957;50.824;4.360;2022-12-07T18:16:29;8.80;99.90
2391;DHT22;22957;50.824;4.360;2022-12-07T18:18:59;8.60;99.90
2391;DHT22;22957;50.824;4.360;2022-12-07T18:21:27;8.30;99.90
2391;DHT22;22957;50.824;4.360;2022-12-07T18:23:54;8.50;99.90
2391;DHT22;22957;50.824;4.360;2022-12-07T18:26:22;8.50;99.90
2391;DHT22;22957;50.824;4.360;2022-12-07T18:28:48;8.70;99.90
2391;DHT22;22957;50.824;4.360;2022-12-07T18:31:14;9.10;99.90
2391;DHT22;22957;50.824;4.360;2022-12-07T18:33:41;8.60;99.90
2391;DHT22;22957;50.824;4.360;2022-12-07T18:36:08;9.00;99.90
2391;DHT22;22957;50.824;4.360;2022-12-07T18:38:34;8.90;99.90
2391;DHT22;22957;50.824;4.360;2022-12-07T18:41:00;8.30;99.90
2391;DHT22;22957;50.824;4.360;2022-12-07T18:43:27;8.20;99.90
2391;DHT22;22957;50.824;4.360;2022-12-07T18:45:52;7.80;99.90
2391;DHT22;22957;50.824;4.360;2022-12-07T18:48:20;8.00;99.90
2391;DHT22;22957;50.824;4.360;2022-12-07T18:50:47;7.90;99.90
2391;DHT22;22957;50.824;4.360;2022-12-07T18:53:13;7.40;99.90
2391;DHT22;22957;50.824;4.360;2022-12-07T18:55:39;7.60;99.90
2391;DHT22;22957;50.824;4.360;2022-12-07T18:58:08;7.70;99.90
2391;DHT22;22957;50.824;4.360;2022-12-07T19:00:34;7.40;99.90
2391;DHT22;22957;50.824;4.360;2022-12-07T19:03:00;7.30;99.90
2391;DHT22;22957;50.824;4.360;2022-12-07T19:05:29;7.80;99.90
2391;DHT22;22957;50.824;4.360;2022-12-07T19:07:55;7.90;99.90
2391;DHT22;22957;50.824;4.360;2022-12-07T19:10:20;7.90;99.90
2391;DHT22;22957;50.824;4.360;2022-12-07T19:12:47;8.10;99.90
2391;DHT22;22957;50.824;4.360;2022-12-07T19:15:14;8.00;99.90
2391;DHT22;22957;50.824;4.360;2022-12-07T19:17:41;7.60;99.90
2391;DHT22;22957;50.824;4.360;2022-12-07T19:20:10;7.80;99.90
2391;DHT22;22957;50.824;4.360;2022-12-07T19:22:36;7.60;99.90
2391;DHT22;22957;50.824;4.360;2022-12-07T19:25:02;8.20;99.90